createdAt,value
2023-04-19T00:02:10.606Z,67.20
2023-04-19T00:04:40.514Z,66.80
2023-04-19T00:07:10.340Z,66.60
2023-04-19T00:09:39.916Z,66.40
2023-04-19T00:12:09.664Z,66.50
2023-04-19T00:14:39.217Z,66.10
2023-04-19T00:17:08.833Z,66.00
2023-04-19T00:19:38.456Z,66.10
2023-04-19T00:22:08.034Z,65.40
2023-04-19T00:24:38.022Z,65.50
2023-04-19T00:27:07.762Z,65.10
2023-04-19T00:29:37.336Z,65.10
2023-04-19T00:32:07.714Z,64.80
2023-04-19T00:34:37.219Z,64.70
2023-04-19T00:37:07.025Z,64.50
2023-04-19T00:39:36.582Z,64.60
2023-04-19T00:42:06.220Z,64.60
2023-04-19T00:44:35.846Z,63.10
2023-04-19T00:47:05.443Z,63.20
2023-04-19T00:49:35.325Z,61.50
2023-04-19T00:52:04.971Z,59.70
2023-04-19T00:54:36.156Z,59.00
2023-04-19T00:57:06.044Z,57.90
2023-04-19T00:59:37.273Z,57.90
2023-04-19T01:02:06.852Z,57.10
2023-04-19T01:04:36.629Z,56.70
2023-04-19T01:07:06.473Z,56.70
2023-04-19T01:09:36.484Z,56.50
2023-04-19T01:12:06.188Z,56.40
2023-04-19T01:14:35.757Z,56.30
2023-04-19T01:17:05.466Z,56.50
2023-04-19T01:19:36.518Z,56.50
2023-04-19T01:22:06.370Z,55.70
2023-04-19T01:24:36.630Z,55.90
2023-04-19T01:27:06.264Z,55.70
2023-04-19T01:29:35.917Z,55.80
2023-04-19T01:32:05.537Z,55.60
2023-04-19T01:34:35.061Z,55.60
2023-04-19T01:37:04.756Z,55.20
2023-04-19T01:39:34.373Z,55.40
2023-04-19T01:42:05.399Z,55.70
2023-04-19T01:44:35.012Z,55.80
2023-04-19T01:47:04.696Z,55.40
2023-04-19T01:49:34.569Z,55.00
2023-04-19T01:52:04.186Z,55.00
2023-04-19T01:54:34.030Z,55.40
2023-04-19T01:57:04.154Z,54.90
2023-04-19T01:59:33.731Z,55.10
2023-04-19T02:02:03.461Z,54.80
2023-04-19T02:04:35.872Z,54.20
2023-04-19T02:07:05.493Z,54.40
2023-04-19T02:09:40.904Z,54.50
2023-04-19T02:12:11.255Z,54.50
2023-04-19T02:14:40.811Z,54.70
2023-04-19T02:17:10.566Z,54.50
2023-04-19T02:19:40.173Z,54.60
2023-04-19T02:22:09.705Z,54.70
2023-04-19T02:24:39.369Z,54.20
2023-04-19T02:27:08.996Z,53.70
2023-04-19T02:29:39.918Z,54.00
2023-04-19T02:32:09.590Z,54.00
2023-04-19T02:34:39.310Z,53.90
2023-04-19T02:37:09.005Z,53.40
2023-04-19T02:39:38.708Z,53.20
2023-04-19T02:42:08.444Z,53.10
2023-04-19T02:44:38.002Z,53.20
2023-04-19T02:47:07.823Z,53.50
2023-04-19T02:49:39.571Z,53.40
2023-04-19T02:52:09.620Z,52.90
2023-04-19T02:54:39.194Z,53.00
2023-04-19T02:57:08.903Z,53.00
2023-04-19T02:59:38.683Z,52.80
2023-04-19T03:02:08.435Z,52.80
2023-04-19T03:04:38.079Z,52.70
2023-04-19T03:07:09.113Z,52.60
2023-04-19T03:09:38.740Z,52.10
2023-04-19T03:12:10.183Z,52.60
2023-04-19T03:14:39.800Z,52.00
2023-04-19T03:17:09.390Z,52.00
2023-04-19T03:19:39.070Z,51.90
2023-04-19T03:22:08.670Z,51.60
2023-04-19T03:24:38.357Z,51.60
2023-04-19T03:27:08.075Z,51.60
2023-04-19T03:29:37.778Z,50.80
2023-04-19T03:32:07.503Z,51.20
2023-04-19T03:34:37.329Z,51.20
2023-04-19T03:37:07.613Z,50.80
2023-04-19T03:39:37.322Z,50.90
2023-04-19T03:42:07.107Z,50.60
2023-04-19T03:44:36.856Z,50.30
2023-04-19T03:47:06.466Z,50.00
2023-04-19T03:49:35.961Z,50.20
2023-04-19T03:52:05.539Z,49.80
2023-04-19T03:54:35.135Z,49.50
2023-04-19T03:57:04.725Z,48.80
2023-04-19T03:59:34.641Z,49.30
2023-04-19T04:02:04.261Z,49.50
2023-04-19T04:04:33.912Z,49.20
2023-04-19T04:07:04.098Z,48.10
2023-04-19T04:09:33.842Z,47.90
2023-04-19T04:12:03.465Z,47.60
2023-04-19T04:14:33.060Z,47.90
2023-04-19T04:17:02.612Z,48.40
2023-04-19T04:19:32.317Z,48.20
2023-04-19T04:22:01.879Z,48.40
2023-04-19T04:24:34.518Z,48.60
2023-04-19T04:27:04.882Z,48.40
2023-04-19T04:29:35.650Z,48.30
2023-04-19T04:32:06.493Z,46.30
2023-04-19T04:34:37.467Z,46.80
2023-04-19T04:37:07.390Z,47.00
2023-04-19T04:39:40.865Z,47.10
2023-04-19T04:42:10.457Z,47.50
2023-04-19T04:44:40.667Z,47.30
2023-04-19T04:47:10.155Z,47.10
2023-04-19T04:49:39.850Z,46.40
2023-04-19T04:52:10.316Z,45.90
2023-04-19T04:54:39.922Z,45.00
2023-04-19T04:57:10.629Z,45.20
2023-04-19T04:59:40.175Z,45.70
2023-04-19T05:02:09.898Z,45.20
2023-04-19T05:04:39.514Z,45.40
2023-04-19T05:07:09.175Z,45.10
2023-04-19T05:09:38.657Z,45.30
2023-04-19T05:12:08.460Z,44.70
2023-04-19T05:14:38.111Z,44.70
2023-04-19T05:17:07.969Z,44.30
2023-04-19T05:19:37.620Z,44.30
2023-04-19T05:22:07.194Z,44.30
2023-04-19T05:24:36.708Z,44.20
2023-04-19T05:27:06.311Z,43.80
2023-04-19T05:29:35.895Z,43.00
2023-04-19T05:32:05.585Z,42.70
2023-04-19T05:34:35.431Z,43.20
2023-04-19T05:37:05.741Z,43.30
2023-04-19T05:39:36.010Z,43.30
2023-04-19T05:42:05.554Z,43.40
2023-04-19T05:44:35.228Z,43.00
2023-04-19T05:47:04.768Z,43.00
2023-04-19T05:49:34.300Z,42.30
2023-04-19T05:52:03.965Z,42.00
2023-04-19T05:54:37.486Z,41.90
2023-04-19T05:57:07.224Z,41.10
2023-04-19T05:59:36.863Z,41.20
2023-04-19T06:02:06.907Z,41.30
2023-04-19T06:04:37.075Z,41.00
2023-04-19T06:07:13.482Z,39.40
2023-04-19T06:09:51.557Z,39.10
2023-04-19T06:12:21.225Z,39.40
2023-04-19T06:14:50.774Z,39.60
2023-04-19T06:17:25.362Z,39.80
2023-04-19T06:19:56.053Z,39.60
2023-04-19T06:22:25.832Z,39.70
2023-04-19T06:24:55.323Z,39.70
2023-04-19T06:27:24.935Z,40.20
2023-04-19T06:29:54.614Z,40.50
2023-04-19T06:32:24.181Z,40.80
2023-04-19T06:34:53.832Z,40.70
2023-04-19T06:37:23.407Z,40.80
2023-04-19T06:39:53.791Z,40.50
2023-04-19T06:42:23.456Z,40.50
2023-04-19T06:44:53.091Z,40.10
2023-04-19T06:47:22.985Z,40.10
2023-04-19T06:49:52.700Z,39.90
2023-04-19T06:52:22.398Z,40.50
2023-04-19T06:54:55.755Z,41.30
2023-04-19T06:57:25.405Z,41.60
2023-04-19T06:59:59.823Z,41.80
2023-04-19T07:02:31.928Z,41.70
2023-04-19T07:05:01.622Z,41.30
2023-04-19T07:07:31.254Z,41.50
2023-04-19T07:10:00.899Z,41.50
2023-04-19T07:12:30.509Z,41.60
2023-04-19T07:15:00.256Z,41.20
2023-04-19T07:17:34.856Z,41.80
2023-04-19T07:20:06.166Z,42.10
2023-04-19T07:22:36.009Z,42.20
2023-04-19T07:25:06.046Z,42.50
2023-04-19T07:27:35.613Z,42.70
2023-04-19T07:30:05.464Z,42.60
2023-04-19T07:32:35.241Z,42.20
2023-04-19T07:35:05.065Z,41.00
2023-04-19T07:37:34.787Z,41.50
2023-04-19T07:40:05.562Z,42.40
2023-04-19T07:42:35.248Z,42.00
2023-04-19T07:45:06.311Z,42.40
2023-04-19T07:47:36.059Z,41.80
2023-04-19T07:50:07.584Z,42.30
2023-04-19T07:52:37.160Z,42.50
2023-04-19T07:55:07.355Z,42.30
2023-04-19T07:57:37.715Z,42.20
2023-04-19T08:00:07.882Z,41.30
2023-04-19T08:02:38.075Z,41.60
2023-04-19T08:05:08.391Z,42.20
2023-04-19T08:07:38.732Z,41.70
2023-04-19T08:10:12.393Z,41.90
2023-04-19T08:12:50.731Z,41.30
2023-04-19T08:18:06.483Z,41.60
2023-04-19T08:20:39.292Z,41.80
2023-04-19T08:23:20.665Z,42.10
2023-04-19T08:25:53.996Z,42.10
2023-04-19T08:28:25.118Z,41.60
2023-04-19T08:30:54.757Z,41.90
2023-04-19T08:33:24.465Z,41.90
2023-04-19T08:35:54.075Z,41.70
2023-04-19T08:38:23.696Z,42.00
2023-04-19T08:40:56.960Z,42.10
2023-04-19T08:43:30.423Z,42.10
2023-04-19T08:46:00.846Z,42.10
2023-04-19T08:48:31.385Z,41.90
2023-04-19T08:51:05.511Z,42.40
2023-04-19T08:53:37.646Z,41.70
2023-04-19T08:56:18.040Z,41.90
2023-04-19T08:59:07.382Z,41.70
2023-04-19T09:21:05.122Z,42.40
2023-04-19T09:23:35.036Z,44.10
2023-04-19T09:26:22.791Z,44.40
2023-04-19T09:29:08.446Z,45.60
2023-04-19T09:34:21.113Z,50.40
2023-04-19T09:37:00.659Z,51.70
2023-04-19T09:39:38.794Z,51.90
2023-04-19T09:42:08.834Z,53.40
2023-04-19T09:45:02.139Z,55.60
2023-04-19T09:47:34.629Z,55.30
2023-04-19T09:52:48.413Z,57.20
2023-04-19T09:55:26.728Z,58.30
2023-04-19T09:57:58.045Z,58.90
2023-04-19T10:00:29.830Z,61.10
2023-04-19T10:03:08.709Z,63.60
2023-04-19T10:05:43.366Z,62.90
2023-04-19T10:08:16.393Z,62.80
2023-04-19T10:10:49.079Z,70.70
2023-04-19T10:25:20.549Z,70.70
2023-04-19T10:27:53.002Z,64.20
2023-04-19T10:30:24.226Z,63.00
2023-04-19T10:33:00.225Z,61.30
2023-04-19T10:35:47.577Z,60.80
2023-04-19T10:38:18.122Z,61.10
2023-04-19T10:41:16.084Z,61.70
2023-04-19T10:43:49.759Z,61.30
2023-04-19T10:46:40.084Z,60.10
2023-04-19T10:49:11.447Z,59.50
2023-04-19T10:51:45.749Z,59.20
2023-04-19T10:54:36.863Z,59.10
2023-04-19T10:57:12.065Z,58.80
2023-04-19T10:59:46.096Z,58.30
2023-04-19T11:02:35.391Z,58.20
2023-04-19T11:05:05.712Z,59.60
2023-04-19T11:07:41.008Z,59.70
2023-04-19T11:10:12.034Z,61.10
2023-04-19T11:12:46.560Z,60.60
2023-04-19T11:15:16.149Z,60.80
2023-04-19T11:17:45.894Z,61.40
2023-04-19T11:20:16.207Z,61.50
2023-04-19T11:22:48.908Z,61.80
2023-04-19T11:25:21.035Z,62.20
2023-04-19T11:27:54.565Z,62.30
2023-04-19T11:30:30.949Z,62.50
2023-04-19T11:33:01.016Z,62.80
2023-04-19T11:35:34.535Z,63.50
2023-04-19T11:38:04.276Z,64.00
2023-04-19T11:40:34.318Z,64.10
2023-04-19T11:43:05.350Z,63.70
2023-04-19T11:45:39.746Z,63.90
2023-04-19T11:48:17.439Z,65.50
2023-04-19T11:50:50.816Z,68.90
2023-04-19T11:53:25.313Z,74.10
2023-04-19T11:55:57.681Z,75.90
2023-04-19T11:58:41.606Z,74.70
2023-04-19T12:01:13.371Z,74.20
2023-04-19T12:03:48.520Z,72.50
2023-04-19T12:06:27.104Z,70.70
2023-04-19T12:08:58.464Z,69.40
2023-04-19T12:11:43.511Z,69.10
2023-04-19T12:14:18.587Z,68.70
2023-04-19T12:16:57.414Z,68.10
2023-04-19T12:19:27.065Z,67.60
2023-04-19T12:22:09.430Z,66.90
2023-04-19T12:24:41.276Z,66.70
2023-04-19T12:27:11.533Z,67.20
2023-04-19T12:29:41.853Z,67.40
2023-04-19T12:32:13.005Z,67.40
2023-04-19T12:34:42.580Z,67.80
2023-04-19T12:37:12.130Z,67.90
2023-04-19T12:39:41.715Z,67.50
2023-04-19T12:42:13.268Z,66.90
2023-04-19T12:44:44.482Z,66.60
2023-04-19T12:47:14.074Z,66.40
2023-04-19T12:49:43.626Z,64.10
2023-04-19T12:52:13.201Z,62.90
2023-04-19T12:54:43.104Z,63.20
2023-04-19T12:57:12.697Z,63.10
2023-04-19T12:59:42.553Z,62.80
2023-04-19T13:02:12.118Z,62.60
2023-04-19T13:04:41.996Z,62.50
2023-04-19T13:07:11.791Z,62.60
2023-04-19T13:09:41.506Z,62.80
2023-04-19T13:12:11.253Z,62.90
2023-04-19T13:14:40.797Z,62.70
2023-04-19T13:17:10.374Z,63.90
2023-04-19T13:19:48.884Z,64.90
2023-04-19T13:22:18.620Z,64.80
2023-04-19T13:24:48.140Z,64.40
2023-04-19T13:27:17.974Z,65.00
2023-04-19T13:29:47.547Z,65.20
2023-04-19T13:32:17.092Z,65.90
2023-04-19T13:34:46.711Z,66.80
2023-04-19T13:37:16.456Z,66.40
2023-04-19T13:39:45.998Z,66.10
2023-04-19T13:42:15.899Z,65.80
2023-04-19T13:44:46.225Z,65.80
2023-04-19T13:47:15.832Z,65.60
2023-04-19T13:49:45.531Z,65.50
2023-04-19T13:52:15.130Z,65.30
2023-04-19T13:54:44.646Z,65.60
2023-04-19T13:57:14.414Z,65.70
2023-04-19T13:59:44.147Z,65.60
2023-04-19T14:02:14.390Z,65.50
2023-04-19T14:04:44.115Z,65.30
2023-04-19T14:07:14.052Z,65.00
2023-04-19T14:09:44.029Z,64.90
2023-04-19T14:12:14.084Z,64.60
2023-04-19T14:14:43.795Z,64.70
2023-04-19T14:17:13.609Z,64.40
2023-04-19T14:19:43.170Z,64.40
2023-04-19T14:22:13.037Z,64.60
2023-04-19T14:24:42.675Z,65.50
2023-04-19T14:27:12.831Z,64.90
2023-04-19T14:29:42.471Z,65.80
2023-04-19T14:32:25.177Z,65.10
2023-04-19T14:34:57.703Z,65.30
2023-04-19T14:37:27.595Z,65.40
2023-04-19T14:39:57.354Z,65.50
2023-04-19T14:42:26.960Z,65.60
2023-04-19T14:44:57.405Z,65.60
2023-04-19T14:47:27.146Z,65.60
2023-04-19T14:49:56.950Z,65.50
2023-04-19T14:52:27.570Z,65.50
2023-04-19T14:54:57.252Z,65.70
2023-04-19T14:57:27.465Z,66.80
2023-04-19T15:00:02.648Z,66.20
2023-04-19T15:02:32.423Z,66.20
2023-04-19T15:05:02.419Z,66.30
2023-04-19T15:07:32.322Z,66.30
2023-04-19T15:10:02.299Z,66.40
2023-04-19T15:12:32.517Z,66.10
2023-04-19T15:15:02.210Z,66.00
2023-04-19T15:17:32.609Z,65.70
2023-04-19T15:20:02.272Z,65.70
2023-04-19T15:22:31.989Z,65.40
2023-04-19T15:25:04.160Z,65.40
2023-04-19T15:27:34.005Z,65.40
2023-04-19T15:30:03.715Z,65.40
2023-04-19T15:32:35.880Z,65.40
2023-04-19T15:35:05.710Z,65.40
2023-04-19T15:37:35.335Z,65.20
2023-04-19T15:40:05.415Z,65.10
2023-04-19T15:42:35.106Z,65.10
2023-04-19T15:45:04.873Z,65.20
2023-04-19T15:47:35.664Z,65.40
2023-04-19T15:50:06.334Z,65.70
2023-04-19T15:52:36.134Z,65.90
2023-04-19T15:55:06.020Z,66.00
2023-04-19T15:57:36.706Z,65.90
2023-04-19T16:00:10.831Z,65.80
2023-04-19T16:02:42.310Z,65.80
2023-04-19T16:05:12.370Z,65.90
2023-04-19T16:07:42.234Z,65.80
2023-04-19T16:10:13.092Z,65.80
2023-04-19T16:12:43.861Z,65.90
2023-04-19T16:15:15.009Z,65.90
2023-04-19T16:17:44.710Z,66.10
2023-04-19T16:20:14.847Z,66.40
2023-04-19T16:22:44.562Z,66.40
2023-04-19T16:25:15.714Z,66.20
2023-04-19T16:27:46.675Z,66.10
2023-04-19T16:30:18.164Z,66.20
2023-04-19T16:32:47.735Z,66.20
2023-04-19T16:35:19.864Z,66.00
2023-04-19T16:37:49.457Z,66.00
2023-04-19T16:40:19.103Z,66.20
2023-04-19T16:42:51.071Z,66.20
2023-04-19T16:45:20.715Z,66.20
2023-04-19T16:47:50.480Z,65.80
2023-04-19T16:50:20.687Z,65.80
2023-04-19T16:52:50.397Z,66.00
2023-04-19T16:55:20.139Z,65.90
2023-04-19T16:57:49.826Z,65.70
2023-04-19T17:00:19.740Z,65.40
2023-04-19T17:02:49.507Z,65.20
2023-04-19T17:05:19.202Z,64.90
2023-04-19T17:07:48.836Z,64.90
2023-04-19T17:10:23.486Z,64.60
2023-04-19T17:12:53.117Z,64.50
2023-04-19T17:15:22.950Z,64.40
2023-04-19T17:17:52.811Z,64.20
2023-04-19T17:20:22.808Z,64.20
2023-04-19T17:22:52.558Z,64.40
2023-04-19T17:25:22.526Z,64.90
2023-04-19T17:27:52.612Z,64.80
2023-04-19T17:30:22.484Z,64.80
2023-04-19T17:32:52.787Z,64.80
2023-04-19T17:35:22.649Z,64.70
2023-04-19T17:37:52.491Z,64.90
2023-04-19T17:40:22.238Z,64.70
2023-04-19T17:42:51.843Z,64.80
2023-04-19T17:45:21.624Z,64.80
2023-04-19T17:47:53.869Z,64.60
2023-04-19T17:50:24.879Z,64.60
2023-04-19T17:52:56.212Z,64.80
2023-04-19T17:55:27.081Z,64.80
2023-04-19T17:57:56.713Z,64.60
2023-04-19T18:00:26.314Z,64.70
2023-04-19T18:02:55.962Z,65.00
2023-04-19T18:05:28.587Z,64.60
2023-04-19T18:07:59.185Z,64.80
2023-04-19T18:10:29.015Z,65.00
2023-04-19T18:12:58.655Z,65.10
2023-04-19T18:15:28.182Z,65.00
2023-04-19T18:17:57.887Z,65.10
2023-04-19T18:20:28.425Z,65.30
2023-04-19T18:23:00.667Z,65.30
2023-04-19T18:25:30.833Z,65.20
2023-04-19T18:28:00.344Z,65.20
2023-04-19T18:30:29.979Z,65.20
2023-04-19T18:33:00.506Z,65.10
2023-04-19T18:35:30.145Z,65.40
2023-04-19T18:37:59.848Z,65.50
2023-04-19T18:40:29.469Z,65.40
2023-04-19T18:42:59.152Z,65.60
2023-04-19T18:45:30.498Z,65.90
2023-04-19T18:48:01.997Z,65.90
2023-04-19T18:50:32.877Z,65.70
2023-04-19T18:53:04.264Z,65.60
2023-04-19T18:55:34.104Z,65.50
2023-04-19T18:58:03.722Z,65.50
2023-04-19T19:00:33.471Z,65.30
2023-04-19T19:03:04.018Z,65.30
2023-04-19T19:05:34.137Z,65.30
2023-04-19T19:08:03.950Z,65.30
2023-04-19T19:11:06.674Z,65.00
2023-04-19T19:13:23.563Z,64.60
2023-04-19T19:15:53.229Z,64.30
2023-04-19T19:18:23.186Z,64.20
2023-04-19T19:20:52.984Z,64.00
2023-04-19T19:23:34.646Z,64.00
2023-04-19T19:26:05.900Z,63.90
2023-04-19T19:28:35.602Z,64.00
2023-04-19T19:31:05.306Z,64.00
2023-04-19T19:33:35.032Z,64.00
2023-04-19T19:36:04.767Z,63.90
2023-04-19T19:38:36.941Z,63.80
2023-04-19T19:41:55.182Z,63.80
2023-04-19T19:43:59.307Z,63.90
2023-04-19T19:48:58.974Z,64.00
2023-04-19T19:51:53.006Z,64.10
2023-04-19T19:54:19.626Z,64.20
2023-04-19T19:59:27.868Z,64.40
2023-04-19T20:01:59.109Z,64.50
2023-04-19T20:04:29.331Z,63.80
2023-04-19T20:09:32.588Z,62.50
2023-04-19T20:12:02.436Z,62.50
2023-04-19T20:14:32.436Z,62.20
2023-04-19T20:17:02.683Z,61.90
2023-04-19T20:19:32.373Z,61.50
2023-04-19T20:22:02.125Z,61.40
2023-04-19T20:24:33.411Z,61.30
2023-04-19T20:27:03.057Z,61.20
2023-04-19T20:29:32.887Z,61.20
2023-04-19T20:32:02.582Z,61.20
2023-04-19T20:34:32.951Z,61.10
2023-04-19T20:37:03.654Z,61.10
2023-04-19T20:39:33.304Z,61.20
2023-04-19T20:42:03.126Z,61.20
2023-04-19T20:44:32.907Z,61.40
2023-04-19T20:47:02.572Z,61.70
2023-04-19T20:49:32.245Z,61.50
2023-04-19T20:52:01.969Z,61.50
2023-04-19T20:54:31.933Z,61.50
2023-04-19T20:57:06.152Z,61.40
2023-04-19T20:59:35.861Z,61.70
2023-04-19T21:02:06.218Z,61.20
2023-04-19T21:04:35.927Z,61.40
2023-04-19T21:07:05.624Z,61.50
2023-04-19T21:09:35.238Z,61.40
2023-04-19T21:12:05.173Z,61.50
2023-04-19T21:14:35.706Z,61.60
2023-04-19T21:17:06.346Z,61.60
2023-04-19T21:19:35.916Z,62.00
2023-04-19T21:22:05.768Z,61.40
2023-04-19T21:24:35.418Z,60.80
2023-04-19T21:27:05.015Z,60.80
2023-04-19T21:29:34.726Z,60.70
2023-04-19T21:32:04.429Z,60.80
2023-04-19T21:34:33.931Z,61.00
2023-04-19T21:37:03.670Z,61.20
2023-04-19T21:39:33.321Z,61.50
2023-04-19T21:42:03.166Z,61.40
2023-04-19T21:44:32.768Z,61.70
2023-04-19T21:47:02.747Z,61.40
2023-04-19T21:49:32.964Z,61.80
2023-04-19T21:52:03.716Z,62.10
2023-04-19T21:54:34.333Z,62.00
2023-04-19T21:57:04.716Z,62.10
2023-04-19T21:59:37.577Z,62.30
2023-04-19T22:02:07.282Z,62.40
2023-04-19T22:04:38.306Z,62.30
2023-04-19T22:07:09.277Z,62.60
2023-04-19T22:09:38.895Z,62.70
2023-04-19T22:12:10.866Z,62.70
2023-04-19T22:14:40.566Z,62.90
2023-04-19T22:17:10.685Z,63.20
2023-04-19T22:19:41.045Z,63.10
2023-04-19T22:22:10.544Z,63.50
2023-04-19T22:24:53.830Z,63.50
2023-04-19T22:27:27.277Z,63.80
2023-04-19T22:29:57.077Z,63.90
2023-04-19T22:32:26.647Z,64.00
2023-04-19T22:34:56.189Z,64.20
2023-04-19T22:37:25.716Z,65.10
2023-04-19T22:39:55.238Z,64.60
2023-04-19T22:42:24.784Z,64.90
2023-04-19T22:44:54.277Z,65.20
2023-04-19T22:47:23.866Z,65.40
2023-04-19T22:49:54.644Z,66.00
2023-04-19T22:52:24.525Z,66.30
2023-04-19T22:54:54.165Z,66.50
2023-04-19T22:57:23.803Z,66.70
2023-04-19T22:59:53.545Z,67.60
2023-04-19T23:02:23.600Z,66.80
2023-04-19T23:04:53.731Z,67.00
2023-04-19T23:07:23.643Z,67.20
2023-04-19T23:09:56.398Z,67.20
2023-04-19T23:12:26.432Z,67.40
2023-04-19T23:14:56.842Z,67.40
2023-04-19T23:17:26.978Z,67.30
2023-04-19T23:19:56.694Z,67.50
2023-04-19T23:22:26.282Z,67.60
2023-04-19T23:24:55.893Z,67.80
2023-04-19T23:27:25.515Z,67.60
2023-04-19T23:29:55.177Z,67.90
2023-04-19T23:32:24.756Z,67.90
2023-04-19T23:34:54.515Z,68.30
2023-04-19T23:37:24.424Z,68.30
2023-04-19T23:39:53.984Z,68.10
2023-04-19T23:42:23.568Z,68.00
2023-04-19T23:44:56.123Z,68.10
2023-04-19T23:47:25.711Z,68.00
2023-04-19T23:49:56.227Z,67.90
2023-04-19T23:52:26.528Z,68.20
2023-04-19T23:54:56.135Z,68.30
2023-04-19T23:57:25.775Z,68.20
2023-04-19T23:59:55.342Z,68.00
